Papatoetoe, New Zealand
Current Conditions -  °F | °C
As of 3:00 AM on Monday 26 Jan 2015 (Local Time) from NZAA Reporting Station
Scattered Clouds Scattered Clouds  
Wind Chill: 63°   Ceiling: Unl
Heat Index: 63°   Visibility: 6mi
Dew Point: 57°   Wind: 5mph
Humidity: 82%   Direction: 40°NE
Pressure: 30.09"   Gusts: NA
Location:  36.97°S, 174.85°E
Report Text: NZAA 251400Z AUTO 04004KT 9999 SCT039/// 17/14 Q1019 NOSIG
Loading
Personal Weather Stations






























Interactive Weather Map New forecast layout! Learn more

10-Day Weather Forecast

Advertisements
Track Severe Weather on mobile